createdAt,value
2022-10-29T00:02:28.000Z,6.8
2022-10-29T00:06:01.000Z,6.9
2022-10-29T00:09:33.000Z,7.4
2022-10-29T00:13:06.000Z,8.1
2022-10-29T00:16:38.000Z,7.2
2022-10-29T00:20:11.000Z,8
2022-10-29T00:23:44.000Z,7.5
2022-10-29T00:27:16.000Z,7.3
2022-10-29T00:30:49.000Z,7.5
2022-10-29T00:33:40.000Z,7
2022-10-29T00:37:13.000Z,7.8
2022-10-29T00:40:45.000Z,7.9
2022-10-29T00:44:18.000Z,7.8
2022-10-29T00:47:51.000Z,8.3
2022-10-29T00:51:24.000Z,7.8
2022-10-29T00:54:57.000Z,6.9
2022-10-29T00:58:29.000Z,7.6
2022-10-29T01:02:02.000Z,7.3
2022-10-29T01:05:35.000Z,7.5
2022-10-29T01:09:07.000Z,7.6
2022-10-29T01:11:58.000Z,7.9
2022-10-29T01:15:31.000Z,7.5
2022-10-29T01:19:04.000Z,7.6
2022-10-29T01:22:36.000Z,7
2022-10-29T01:26:09.000Z,7.6
2022-10-29T01:29:41.000Z,7.5
2022-10-29T01:33:14.000Z,7.7
2022-10-29T01:36:47.000Z,7
2022-10-29T01:40:19.000Z,6.6
2022-10-29T01:43:52.000Z,7
2022-10-29T01:47:25.000Z,7.3
2022-10-29T01:50:16.000Z,6.9
2022-10-29T01:53:48.000Z,7.6
2022-10-29T01:57:21.000Z,7.2
2022-10-29T02:00:53.000Z,7.5
2022-10-29T02:04:26.000Z,8.1
2022-10-29T02:07:59.000Z,8.3
2022-10-29T02:11:31.000Z,7.4
2022-10-29T02:15:04.000Z,8
2022-10-29T02:18:37.000Z,7.4
2022-10-29T02:22:09.000Z,7.3
2022-10-29T02:25:42.000Z,8.8
2022-10-29T02:28:33.000Z,8
2022-10-29T02:32:06.000Z,8.5
2022-10-29T02:35:39.000Z,8.7
2022-10-29T02:39:11.000Z,8.6
2022-10-29T02:42:44.000Z,8.1
2022-10-29T02:46:16.000Z,6.9
2022-10-29T02:49:49.000Z,8.6
2022-10-29T02:53:22.000Z,7.7
2022-10-29T02:56:54.000Z,7.9
2022-10-29T03:00:27.000Z,8
2022-10-29T03:04:00.000Z,8.2
2022-10-29T03:06:51.000Z,7.5
2022-10-29T03:10:24.000Z,8.5
2022-10-29T03:13:56.000Z,7.8
2022-10-29T03:17:29.000Z,7.9
2022-10-29T03:21:01.000Z,7.9
2022-10-29T03:24:34.000Z,7.6
2022-10-29T03:28:07.000Z,7.9
2022-10-29T03:31:39.000Z,8.3
2022-10-29T03:35:12.000Z,7.8
2022-10-29T03:38:44.000Z,8.3
2022-10-29T03:42:17.000Z,8.2
2022-10-29T03:45:08.000Z,7.8
2022-10-29T03:48:41.000Z,7.5
2022-10-29T03:52:14.000Z,8.6
2022-10-29T03:55:46.000Z,7.8
2022-10-29T03:59:19.000Z,8.6
2022-10-29T04:02:51.000Z,9.5
2022-10-29T04:06:25.000Z,8.9
2022-10-29T04:09:57.000Z,8
2022-10-29T04:13:30.000Z,8.4
2022-10-29T04:17:03.000Z,8.6
2022-10-29T04:20:35.000Z,7.5
2022-10-29T04:30:42.000Z,8.1
2022-10-29T04:34:15.000Z,8.3
2022-10-29T04:37:48.000Z,8.8
2022-10-29T04:41:22.000Z,8.5
2022-10-29T04:44:55.000Z,8.6
2022-10-29T04:48:28.000Z,8
2022-10-29T04:52:00.000Z,8.2
2022-10-29T04:55:33.000Z,8
2022-10-29T04:59:06.000Z,8.3
2022-10-29T05:02:39.000Z,8.4
2022-10-29T05:05:30.000Z,8.1
2022-10-29T05:09:02.000Z,7.9
2022-10-29T05:12:35.000Z,8.6
2022-10-29T05:16:07.000Z,8.3
2022-10-29T05:19:40.000Z,7.9
2022-10-29T05:23:13.000Z,8
2022-10-29T05:26:45.000Z,7.5
2022-10-29T05:30:18.000Z,8.7
2022-10-29T05:33:51.000Z,7.4
2022-10-29T05:37:24.000Z,8.3
2022-10-29T05:40:56.000Z,8.4
2022-10-29T05:43:47.000Z,8
2022-10-29T05:47:20.000Z,8.2
2022-10-29T05:50:53.000Z,8.1
2022-10-29T05:54:25.000Z,8.8
2022-10-29T05:57:58.000Z,9.1
2022-10-29T06:01:32.000Z,9
2022-10-29T06:05:05.000Z,8
2022-10-29T06:08:38.000Z,8.8
2022-10-29T06:12:11.000Z,8.8
2022-10-29T06:15:44.000Z,9.9
2022-10-29T06:19:16.000Z,9.3
2022-10-29T06:22:07.000Z,9.6
2022-10-29T06:25:40.000Z,8.2
2022-10-29T06:29:12.000Z,8.3
2022-10-29T06:32:45.000Z,8.9
2022-10-29T06:36:18.000Z,8.2
2022-10-29T06:39:50.000Z,10
2022-10-29T06:43:23.000Z,9.3
2022-10-29T06:46:56.000Z,8.9
2022-10-29T06:50:28.000Z,8.9
2022-10-29T06:54:01.000Z,9.1
2022-10-29T06:57:34.000Z,8.9
2022-10-29T07:00:25.000Z,10.4
2022-10-29T07:03:58.000Z,9.3
2022-10-29T07:07:30.000Z,10.3
2022-10-29T07:11:03.000Z,9.4
2022-10-29T07:14:36.000Z,8.5
2022-10-29T07:18:09.000Z,9.1
2022-10-29T07:21:41.000Z,8.5
2022-10-29T07:25:14.000Z,8.5
2022-10-29T07:28:47.000Z,10.2
2022-10-29T07:32:19.000Z,10.7
2022-10-29T07:35:52.000Z,10.1
2022-10-29T07:38:43.000Z,11.2
2022-10-29T07:42:16.000Z,8.4
2022-10-29T07:45:49.000Z,11
2022-10-29T07:49:21.000Z,11.8
2022-10-29T07:52:54.000Z,12.9
2022-10-29T07:56:27.000Z,13.4
2022-10-29T07:59:59.000Z,14.5
2022-10-29T08:03:32.000Z,12.3
2022-10-29T08:07:05.000Z,10.8
2022-10-29T08:10:37.000Z,14.5
2022-10-29T08:14:10.000Z,10.8
2022-10-29T08:17:06.000Z,10.6
2022-10-29T08:20:38.000Z,12.2
2022-10-29T08:24:11.000Z,10.4
2022-10-29T08:27:44.000Z,12.9
2022-10-29T08:31:16.000Z,14.9
2022-10-29T08:34:49.000Z,14.6
2022-10-29T08:38:22.000Z,11.7
2022-10-29T08:41:54.000Z,14.2
2022-10-29T08:45:27.000Z,12.9
2022-10-29T08:49:05.000Z,12
2022-10-29T08:52:38.000Z,12.9
2022-10-29T08:55:48.000Z,12
2022-10-29T08:59:21.000Z,10.4
2022-10-29T09:02:54.000Z,10.7
2022-10-29T09:06:26.000Z,10.6
2022-10-29T09:10:01.000Z,11.8
2022-10-29T09:13:33.000Z,11.8
2022-10-29T09:17:06.000Z,10.6
2022-10-29T09:20:41.000Z,9.8
2022-10-29T09:24:13.000Z,11.9
2022-10-29T09:27:46.000Z,11.2
2022-10-29T09:31:19.000Z,15
2022-10-29T09:34:11.000Z,14.1
2022-10-29T09:37:43.000Z,12.5
2022-10-29T09:41:23.000Z,12.5
2022-10-29T09:44:55.000Z,11.1
2022-10-29T09:48:28.000Z,11.9
2022-10-29T09:52:07.000Z,10.4
2022-10-29T09:55:39.000Z,10.6
2022-10-29T09:59:12.000Z,11
2022-10-29T10:02:45.000Z,11.4
2022-10-29T10:06:17.000Z,10.3
2022-10-29T10:09:50.000Z,10
2022-10-29T10:12:41.000Z,9.9
2022-10-29T10:16:14.000Z,9.8
2022-10-29T10:19:46.000Z,10.2
2022-10-29T10:23:19.000Z,9.8
2022-10-29T10:26:52.000Z,9.5
2022-10-29T10:30:24.000Z,10.2
2022-10-29T10:33:57.000Z,9.9
2022-10-29T10:37:30.000Z,9.6
2022-10-29T10:41:02.000Z,9.9
2022-10-29T10:44:35.000Z,9.1
2022-10-29T10:48:08.000Z,9.2
2022-10-29T10:50:59.000Z,8.8
2022-10-29T10:54:32.000Z,9.3
2022-10-29T10:58:05.000Z,8.7
2022-10-29T11:01:37.000Z,8.8
2022-10-29T11:05:10.000Z,8.8
2022-10-29T11:08:43.000Z,8.7
2022-10-29T11:12:15.000Z,9.5
2022-10-29T11:15:48.000Z,8.5
2022-10-29T11:19:21.000Z,7.4
2022-10-29T11:22:59.000Z,7.8
2022-10-29T11:26:32.000Z,6.7
2022-10-29T11:29:23.000Z,6.8
2022-10-29T11:32:56.000Z,6.8
2022-10-29T11:36:29.000Z,7.2
2022-10-29T11:40:01.000Z,6.9
2022-10-29T11:43:34.000Z,6.6
2022-10-29T11:47:07.000Z,7.2
2022-10-29T11:50:39.000Z,7
2022-10-29T11:54:12.000Z,6.7
2022-10-29T11:57:44.000Z,7.2
2022-10-29T12:01:17.000Z,6.6
2022-10-29T12:04:50.000Z,6.8
2022-10-29T12:07:41.000Z,6.4
2022-10-29T12:11:13.000Z,6.2
2022-10-29T12:14:46.000Z,6.5
2022-10-29T12:18:19.000Z,6.1
2022-10-29T12:21:52.000Z,5.8
2022-10-29T12:25:24.000Z,5.7
2022-10-29T12:28:57.000Z,6
2022-10-29T12:32:29.000Z,6.5
2022-10-29T12:36:02.000Z,6
2022-10-29T12:39:35.000Z,7
2022-10-29T12:43:08.000Z,6.8
2022-10-29T12:45:59.000Z,6.3
2022-10-29T12:49:45.000Z,6.4
2022-10-29T12:53:18.000Z,6.2
2022-10-29T12:56:50.000Z,5.8
2022-10-29T13:00:23.000Z,6.2
2022-10-29T13:04:10.000Z,6
2022-10-29T13:07:43.000Z,6.4
2022-10-29T13:11:16.000Z,6.5
2022-10-29T13:14:49.000Z,6.3
2022-10-29T13:18:21.000Z,6.8
2022-10-29T13:21:54.000Z,6.3
2022-10-29T13:24:45.000Z,5.3
2022-10-29T13:28:18.000Z,4.9
2022-10-29T13:31:50.000Z,5.8
2022-10-29T13:35:29.000Z,5.5
2022-10-29T13:39:02.000Z,5.3
2022-10-29T13:42:35.000Z,5.7
2022-10-29T13:46:07.000Z,5.7
2022-10-29T13:49:40.000Z,5.4
2022-10-29T13:53:12.000Z,5.5
2022-10-29T13:56:45.000Z,5.1
2022-10-29T14:00:18.000Z,5.8
2022-10-29T14:03:09.000Z,5.4
2022-10-29T14:06:42.000Z,6
2022-10-29T14:10:14.000Z,5.4
2022-10-29T14:13:47.000Z,5.3
2022-10-29T14:17:20.000Z,6.2
2022-10-29T14:20:52.000Z,5.7
2022-10-29T14:24:25.000Z,6.3
2022-10-29T14:27:58.000Z,6.1
2022-10-29T14:31:30.000Z,6.4
2022-10-29T14:35:03.000Z,6.4
2022-10-29T14:38:35.000Z,6.1
2022-10-29T14:41:26.000Z,5.9
2022-10-29T14:45:00.000Z,6.1
2022-10-29T14:48:32.000Z,6.6
2022-10-29T14:52:05.000Z,5.7
2022-10-29T14:55:37.000Z,5.5
2022-10-29T14:59:10.000Z,5.5
2022-10-29T15:02:44.000Z,6
2022-10-29T15:06:17.000Z,6.2
2022-10-29T15:09:49.000Z,6.6
2022-10-29T15:13:22.000Z,6.5
2022-10-29T15:16:55.000Z,6.9
2022-10-29T15:19:46.000Z,7.6
2022-10-29T15:23:19.000Z,7.9
2022-10-29T15:26:51.000Z,7.6
2022-10-29T15:30:24.000Z,8.5
2022-10-29T15:33:56.000Z,7.9
2022-10-29T15:37:29.000Z,8.3
2022-10-29T15:41:01.000Z,8.6
2022-10-29T15:44:34.000Z,8.1
2022-10-29T15:48:07.000Z,8.4
2022-10-29T15:51:39.000Z,7.6
2022-10-29T15:55:12.000Z,7.4
2022-10-29T15:58:10.000Z,7.1
2022-10-29T16:01:43.000Z,8.2
2022-10-29T16:05:15.000Z,8.5
2022-10-29T16:08:48.000Z,8.5
2022-10-29T16:12:20.000Z,7.8
2022-10-29T16:15:54.000Z,7.6
2022-10-29T16:19:27.000Z,8
2022-10-29T16:22:59.000Z,7.7
2022-10-29T16:26:32.000Z,7.8
2022-10-29T16:30:04.000Z,7.8
2022-10-29T16:33:37.000Z,9.3
2022-10-29T16:36:28.000Z,8.4
2022-10-29T16:40:01.000Z,9
2022-10-29T16:43:34.000Z,12.3
2022-10-29T16:47:06.000Z,17.7
2022-10-29T16:50:39.000Z,13.8
2022-10-29T16:54:21.000Z,10
2022-10-29T16:57:53.000Z,10.1
2022-10-29T17:01:26.000Z,10.6
2022-10-29T17:05:09.000Z,10.3
2022-10-29T17:08:42.000Z,10.3
2022-10-29T17:12:14.000Z,8.9
2022-10-29T17:15:06.000Z,7.9
2022-10-29T17:18:38.000Z,7.9
2022-10-29T17:22:11.000Z,7.5
2022-10-29T17:25:43.000Z,7.8
2022-10-29T17:29:16.000Z,8.4
2022-10-29T17:32:49.000Z,8.1
2022-10-29T17:36:22.000Z,8.6
2022-10-29T17:39:54.000Z,8.5
2022-10-29T17:43:33.000Z,8.7
2022-10-29T17:47:06.000Z,8.8
2022-10-29T17:50:38.000Z,8.7
2022-10-29T17:53:29.000Z,8.7
2022-10-29T17:57:02.000Z,8.6
2022-10-29T18:00:34.000Z,8.8
2022-10-29T18:04:07.000Z,9.1
2022-10-29T18:07:40.000Z,8.2
2022-10-29T18:11:18.000Z,8.5
2022-10-29T18:14:51.000Z,10.2
2022-10-29T18:18:24.000Z,10.5
2022-10-29T18:22:13.000Z,9.3
2022-10-29T18:25:46.000Z,9.6
2022-10-29T18:29:18.000Z,10.2
2022-10-29T18:32:09.000Z,9.7
2022-10-29T18:35:42.000Z,9.7
2022-10-29T18:39:14.000Z,9.9
2022-10-29T18:42:47.000Z,9.2
2022-10-29T18:46:20.000Z,10.3
2022-10-29T18:49:53.000Z,10.9
2022-10-29T18:53:25.000Z,10.6
2022-10-29T18:56:58.000Z,12.5
2022-10-29T19:00:31.000Z,11
2022-10-29T19:04:04.000Z,10.2
2022-10-29T19:07:36.000Z,10.6
2022-10-29T19:10:28.000Z,10.7
2022-10-29T19:14:01.000Z,11
2022-10-29T19:17:33.000Z,10.4
2022-10-29T19:21:06.000Z,9.6
2022-10-29T19:24:39.000Z,9.7
2022-10-29T19:28:12.000Z,8.9
2022-10-29T19:31:44.000Z,10.1
2022-10-29T19:35:17.000Z,10.1
2022-10-29T19:38:49.000Z,10.3
2022-10-29T19:42:22.000Z,10.3
2022-10-29T19:45:55.000Z,9.5
2022-10-29T19:48:45.000Z,8.8
2022-10-29T19:52:18.000Z,8.3
2022-10-29T19:55:51.000Z,8.8
2022-10-29T19:59:24.000Z,8.7
2022-10-29T20:02:56.000Z,8.9
2022-10-29T20:06:29.000Z,9
2022-10-29T20:10:02.000Z,9.3
2022-10-29T20:13:34.000Z,8.8
2022-10-29T20:17:07.000Z,8.8
2022-10-29T20:20:39.000Z,12.5
2022-10-29T20:24:12.000Z,12.2
2022-10-29T20:27:03.000Z,10.6
2022-10-29T20:30:36.000Z,10.2
2022-10-29T20:34:08.000Z,10.8
2022-10-29T20:37:41.000Z,9.4
2022-10-29T20:41:13.000Z,9.5
2022-10-29T20:44:46.000Z,9.5
2022-10-29T20:48:19.000Z,9.3
2022-10-29T20:51:52.000Z,8.9
2022-10-29T20:55:24.000Z,9.2
2022-10-29T20:58:57.000Z,8.3
2022-10-29T21:02:30.000Z,8.2
2022-10-29T21:05:21.000Z,8.7
2022-10-29T21:08:54.000Z,8.9
2022-10-29T21:12:26.000Z,9
2022-10-29T21:15:59.000Z,9.8
2022-10-29T21:19:31.000Z,8.5
2022-10-29T21:23:04.000Z,9.7
2022-10-29T21:26:41.000Z,8.7
2022-10-29T21:30:14.000Z,8.6
2022-10-29T21:33:46.000Z,8.8
2022-10-29T21:37:19.000Z,9.3
2022-10-29T21:40:52.000Z,9.6
2022-10-29T21:43:43.000Z,9.1
2022-10-29T21:47:16.000Z,9.7
2022-10-29T21:50:48.000Z,9.2
2022-10-29T21:54:21.000Z,9.3
2022-10-29T21:57:54.000Z,8.8
2022-10-29T22:01:26.000Z,9.6
2022-10-29T22:05:03.000Z,8.8
2022-10-29T22:08:35.000Z,9.5
2022-10-29T22:12:08.000Z,9.3
2022-10-29T22:15:41.000Z,7.7
2022-10-29T22:19:13.000Z,7.9
2022-10-29T22:22:05.000Z,10.6
2022-10-29T22:25:37.000Z,10.5
2022-10-29T22:29:10.000Z,10.3
2022-10-29T22:32:42.000Z,8.4
2022-10-29T22:36:15.000Z,8.6
2022-10-29T22:39:48.000Z,8.9
2022-10-29T22:43:20.000Z,8.7
2022-10-29T22:46:53.000Z,8.7
2022-10-29T22:50:25.000Z,9
2022-10-29T22:54:00.000Z,8.7
2022-10-29T22:57:33.000Z,8.1
2022-10-29T23:00:23.000Z,8.3
2022-10-29T23:03:56.000Z,8.7
2022-10-29T23:07:29.000Z,9
2022-10-29T23:11:02.000Z,9.1
2022-10-29T23:14:34.000Z,9
2022-10-29T23:18:07.000Z,8.6
2022-10-29T23:21:40.000Z,8.2
2022-10-29T23:25:44.000Z,8.7
2022-10-29T23:29:17.000Z,8.3
2022-10-29T23:32:50.000Z,9
2022-10-29T23:36:23.000Z,9.8
2022-10-29T23:39:14.000Z,9.6
2022-10-29T23:42:47.000Z,9.1
2022-10-29T23:46:19.000Z,8.6
2022-10-29T23:49:52.000Z,9.5
2022-10-29T23:53:25.000Z,9.2
2022-10-29T23:56:57.000Z,9.2
